sensor_id;sensor_type;location;lat;lon;timestamp;temperature;humidity
21417;DHT22;10869;52.238;10.716;2022-09-23T03:05:20;11.00;99.60
21417;DHT22;10869;52.238;10.716;2022-09-23T03:11:10;11.00;99.40
21417;DHT22;10869;52.238;10.716;2022-09-23T03:13:49;11.00;99.40
21417;DHT22;10869;52.238;10.716;2022-09-23T03:19:31;10.90;99.40
21417;DHT22;10869;52.238;10.716;2022-09-23T03:22:21;10.90;99.80
21417;DHT22;10869;52.238;10.716;2022-09-23T03:24:50;10.90;99.40
21417;DHT22;10869;52.238;10.716;2022-09-23T03:27:20;10.90;99.60
21417;DHT22;10869;52.238;10.716;2022-09-23T03:29:49;10.90;99.50
21417;DHT22;10869;52.238;10.716;2022-09-23T03:32:18;10.90;99.40
21417;DHT22;10869;52.238;10.716;2022-09-23T03:34:47;10.90;99.40
21417;DHT22;10869;52.238;10.716;2022-09-23T03:37:53;10.90;99.30
21417;DHT22;10869;52.238;10.716;2022-09-23T03:40:21;10.90;99.30
21417;DHT22;10869;52.238;10.716;2022-09-23T03:42:48;10.90;99.20
21417;DHT22;10869;52.238;10.716;2022-09-23T03:45:17;10.90;99.00
21417;DHT22;10869;52.238;10.716;2022-09-23T03:47:44;10.90;99.00
21417;DHT22;10869;52.238;10.716;2022-09-23T03:50:11;10.90;99.10
21417;DHT22;10869;52.238;10.716;2022-09-23T03:52:38;10.80;99.10
21417;DHT22;10869;52.238;10.716;2022-09-23T03:55:06;10.80;99.10
21417;DHT22;10869;52.238;10.716;2022-09-23T03:57:32;10.90;99.00
21417;DHT22;10869;52.238;10.716;2022-09-23T03:59:58;10.80;99.10
21417;DHT22;10869;52.238;10.716;2022-09-23T04:02:23;10.80;99.00
21417;DHT22;10869;52.238;10.716;2022-09-23T04:04:50;10.80;98.90
21417;DHT22;10869;52.238;10.716;2022-09-23T04:07:16;10.80;99.20
21417;DHT22;10869;52.238;10.716;2022-09-23T04:09:42;10.70;99.10
21417;DHT22;10869;52.238;10.716;2022-09-23T04:12:11;10.70;99.20
21417;DHT22;10869;52.238;10.716;2022-09-23T04:14:38;10.70;99.40
21417;DHT22;10869;52.238;10.716;2022-09-23T04:17:04;10.70;99.10
21417;DHT22;10869;52.238;10.716;2022-09-23T04:19:29;10.70;99.10
21417;DHT22;10869;52.238;10.716;2022-09-23T04:21:55;10.70;99.20
21417;DHT22;10869;52.238;10.716;2022-09-23T04:24:21;10.70;99.10
21417;DHT22;10869;52.238;10.716;2022-09-23T04:26:50;10.70;99.10
21417;DHT22;10869;52.238;10.716;2022-09-23T04:29:17;10.70;99.00
21417;DHT22;10869;52.238;10.716;2022-09-23T04:31:43;10.70;99.20
21417;DHT22;10869;52.238;10.716;2022-09-23T04:34:09;10.60;99.10
21417;DHT22;10869;52.238;10.716;2022-09-23T04:36:34;10.70;99.20
21417;DHT22;10869;52.238;10.716;2022-09-23T04:39:00;10.60;99.30
21417;DHT22;10869;52.238;10.716;2022-09-23T04:41:26;10.60;99.20
21417;DHT22;10869;52.238;10.716;2022-09-23T04:43:52;10.60;99.40
21417;DHT22;10869;52.238;10.716;2022-09-23T04:46:18;10.60;99.30
21417;DHT22;10869;52.238;10.716;2022-09-23T04:48:45;10.60;99.30
21417;DHT22;10869;52.238;10.716;2022-09-23T04:51:19;10.60;99.30
21417;DHT22;10869;52.238;10.716;2022-09-23T04:53:47;10.60;99.30
21417;DHT22;10869;52.238;10.716;2022-09-23T04:56:16;10.60;99.30
21417;DHT22;10869;52.238;10.716;2022-09-23T04:58:43;10.60;99.20
21417;DHT22;10869;52.238;10.716;2022-09-23T05:01:30;10.60;99.50
21417;DHT22;10869;52.238;10.716;2022-09-23T05:03:58;10.50;99.40
21417;DHT22;10869;52.238;10.716;2022-09-23T05:09:55;10.60;99.50
21417;DHT22;10869;52.238;10.716;2022-09-23T05:12:20;10.50;99.30
21417;DHT22;10869;52.238;10.716;2022-09-23T05:18:08;10.50;99.30
21417;DHT22;10869;52.238;10.716;2022-09-23T05:23:56;10.50;99.80
21417;DHT22;10869;52.238;10.716;2022-09-23T05:26:27;10.50;99.80
21417;DHT22;10869;52.238;10.716;2022-09-23T05:28:54;10.50;99.70
21417;DHT22;10869;52.238;10.716;2022-09-23T05:34:42;10.70;99.60
21417;DHT22;10869;52.238;10.716;2022-09-23T05:40:29;10.70;99.50
21417;DHT22;10869;52.238;10.716;2022-09-23T05:42:55;10.70;99.70
21417;DHT22;10869;52.238;10.716;2022-09-23T05:45:21;10.70;99.60
21417;DHT22;10869;52.238;10.716;2022-09-23T05:47:48;10.80;99.60
21417;DHT22;10869;52.238;10.716;2022-09-23T05:50:14;10.80;99.70
21417;DHT22;10869;52.238;10.716;2022-09-23T05:52:40;10.90;99.60
21417;DHT22;10869;52.238;10.716;2022-09-23T05:55:07;10.90;99.70
21417;DHT22;10869;52.238;10.716;2022-09-23T05:57:32;11.00;99.60
21417;DHT22;10869;52.238;10.716;2022-09-23T05:59:58;11.00;99.50
21417;DHT22;10869;52.238;10.716;2022-09-23T06:02:24;11.10;99.40
21417;DHT22;10869;52.238;10.716;2022-09-23T06:04:50;11.10;99.40
21417;DHT22;10869;52.238;10.716;2022-09-23T06:07:15;11.20;99.40
21417;DHT22;10869;52.238;10.716;2022-09-23T06:09:41;11.20;99.30
21417;DHT22;10869;52.238;10.716;2022-09-23T06:17:18;11.40;99.50
21417;DHT22;10869;52.238;10.716;2022-09-23T06:19:43;11.50;99.50
21417;DHT22;10869;52.238;10.716;2022-09-23T06:22:23;11.50;99.40
21417;DHT22;10869;52.238;10.716;2022-09-23T06:24:49;11.60;99.30
21417;DHT22;10869;52.238;10.716;2022-09-23T06:27:15;11.70;99.20
21417;DHT22;10869;52.238;10.716;2022-09-23T06:29:41;11.70;99.20
21417;DHT22;10869;52.238;10.716;2022-09-23T06:32:06;11.80;99.30
21417;DHT22;10869;52.238;10.716;2022-09-23T06:34:32;11.80;99.20
21417;DHT22;10869;52.238;10.716;2022-09-23T06:37:01;11.90;99.20
21417;DHT22;10869;52.238;10.716;2022-09-23T06:39:27;12.00;99.20
21417;DHT22;10869;52.238;10.716;2022-09-23T06:42:00;12.20;99.10
21417;DHT22;10869;52.238;10.716;2022-09-23T06:47:55;12.60;98.90
21417;DHT22;10869;52.238;10.716;2022-09-23T06:50:24;12.80;98.80
21417;DHT22;10869;52.238;10.716;2022-09-23T06:52:54;12.90;98.40
21417;DHT22;10869;52.238;10.716;2022-09-23T06:55:24;13.00;98.40
21417;DHT22;10869;52.238;10.716;2022-09-23T07:00:27;13.20;97.80
21417;DHT22;10869;52.238;10.716;2022-09-23T07:02:53;13.30;97.90
21417;DHT22;10869;52.238;10.716;2022-09-23T07:05:19;13.30;97.90
21417;DHT22;10869;52.238;10.716;2022-09-23T07:07:47;13.40;97.70
21417;DHT22;10869;52.238;10.716;2022-09-23T07:10:13;13.50;97.80
21417;DHT22;10869;52.238;10.716;2022-09-23T07:12:39;13.60;97.90
21417;DHT22;10869;52.238;10.716;2022-09-23T07:15:06;13.60;97.90
21417;DHT22;10869;52.238;10.716;2022-09-23T07:17:35;13.70;97.90
21417;DHT22;10869;52.238;10.716;2022-09-23T07:20:02;13.80;97.60
21417;DHT22;10869;52.238;10.716;2022-09-23T07:22:28;13.80;97.40
21417;DHT22;10869;52.238;10.716;2022-09-23T07:24:57;13.90;97.40
21417;DHT22;10869;52.238;10.716;2022-09-23T07:27:24;14.10;97.20
21417;DHT22;10869;52.238;10.716;2022-09-23T07:29:51;14.30;97.20
21417;DHT22;10869;52.238;10.716;2022-09-23T07:32:17;14.40;97.00
21417;DHT22;10869;52.238;10.716;2022-09-23T07:38:07;14.40;97.00
21417;DHT22;10869;52.238;10.716;2022-09-23T07:40:33;14.40;96.70
21417;DHT22;10869;52.238;10.716;2022-09-23T07:42:59;14.60;96.80
21417;DHT22;10869;52.238;10.716;2022-09-23T07:45:25;14.70;96.60
21417;DHT22;10869;52.238;10.716;2022-09-23T07:51:18;15.00;96.80
21417;DHT22;10869;52.238;10.716;2022-09-23T07:53:53;15.20;96.20
21417;DHT22;10869;52.238;10.716;2022-09-23T07:56:29;15.20;96.50
21417;DHT22;10869;52.238;10.716;2022-09-23T07:58:55;15.20;96.20
21417;DHT22;10869;52.238;10.716;2022-09-23T08:08:08;15.10;96.20
21417;DHT22;10869;52.238;10.716;2022-09-23T08:10:34;15.10;96.10
21417;DHT22;10869;52.238;10.716;2022-09-23T08:12:59;15.10;96.50
21417;DHT22;10869;52.238;10.716;2022-09-23T08:15:28;15.10;96.50
21417;DHT22;10869;52.238;10.716;2022-09-23T08:17:58;15.10;96.50
21417;DHT22;10869;52.238;10.716;2022-09-23T08:20:25;15.00;96.10
21417;DHT22;10869;52.238;10.716;2022-09-23T08:23:10;15.10;96.40
21417;DHT22;10869;52.238;10.716;2022-09-23T08:25:38;15.20;96.20
21417;DHT22;10869;52.238;10.716;2022-09-23T08:28:04;15.40;96.40
21417;DHT22;10869;52.238;10.716;2022-09-23T08:30:30;15.60;96.20
21417;DHT22;10869;52.238;10.716;2022-09-23T08:32:55;15.80;96.00
21417;DHT22;10869;52.238;10.716;2022-09-23T08:35:21;15.90;95.30
21417;DHT22;10869;52.238;10.716;2022-09-23T08:37:47;16.10;95.10
21417;DHT22;10869;52.238;10.716;2022-09-23T08:40:13;16.40;94.80
21417;DHT22;10869;52.238;10.716;2022-09-23T08:42:42;16.50;94.40
21417;DHT22;10869;52.238;10.716;2022-09-23T08:45:18;16.60;94.30
21417;DHT22;10869;52.238;10.716;2022-09-23T08:47:56;16.80;94.80
21417;DHT22;10869;52.238;10.716;2022-09-23T08:50:35;17.00;94.50
21417;DHT22;10869;52.238;10.716;2022-09-23T08:53:07;17.00;94.20
21417;DHT22;10869;52.238;10.716;2022-09-23T08:55:51;17.10;94.40
21417;DHT22;10869;52.238;10.716;2022-09-23T09:04:13;17.30;93.90
21417;DHT22;10869;52.238;10.716;2022-09-23T09:09:36;17.50;93.70
21417;DHT22;10869;52.238;10.716;2022-09-23T09:12:13;17.70;93.70
21417;DHT22;10869;52.238;10.716;2022-09-23T09:17:36;18.20;92.70
21417;DHT22;10869;52.238;10.716;2022-09-23T09:20:28;18.40;91.90
21417;DHT22;10869;52.238;10.716;2022-09-23T09:22:52;18.40;92.20
21417;DHT22;10869;52.238;10.716;2022-09-23T09:25:42;18.50;91.70
21417;DHT22;10869;52.238;10.716;2022-09-23T09:28:19;18.50;92.10
21417;DHT22;10869;52.238;10.716;2022-09-23T09:39:37;18.50;92.10
21417;DHT22;10869;52.238;10.716;2022-09-23T09:42:04;18.40;92.00
21417;DHT22;10869;52.238;10.716;2022-09-23T10:14:09;19.60;91.70
21417;DHT22;10869;52.238;10.716;2022-09-23T10:16:37;19.60;91.20
21417;DHT22;10869;52.238;10.716;2022-09-23T10:22:31;19.50;91.30
21417;DHT22;10869;52.238;10.716;2022-09-23T10:25:19;19.60;91.10
21417;DHT22;10869;52.238;10.716;2022-09-23T10:27:45;19.60;91.30
21417;DHT22;10869;52.238;10.716;2022-09-23T10:33:33;19.80;91.60
21417;DHT22;10869;52.238;10.716;2022-09-23T10:36:08;19.80;91.40
21417;DHT22;10869;52.238;10.716;2022-09-23T10:38:33;19.80;91.20
21417;DHT22;10869;52.238;10.716;2022-09-23T10:41:01;20.10;91.50
21417;DHT22;10869;52.238;10.716;2022-09-23T10:44:10;20.30;90.90
21417;DHT22;10869;52.238;10.716;2022-09-23T10:47:01;20.50;90.60
21417;DHT22;10869;52.238;10.716;2022-09-23T11:29:39;21.40;86.30
21417;DHT22;10869;52.238;10.716;2022-09-23T11:37:55;20.00;87.80
21417;DHT22;10869;52.238;10.716;2022-09-23T11:40:31;19.60;89.10
21417;DHT22;10869;52.238;10.716;2022-09-23T11:43:14;19.70;90.20
21417;DHT22;10869;52.238;10.716;2022-09-23T11:54:54;20.00;89.50
21417;DHT22;10869;52.238;10.716;2022-09-23T11:57:48;19.90;89.30
21417;DHT22;10869;52.238;10.716;2022-09-23T12:00:21;19.80;89.40
21417;DHT22;10869;52.238;10.716;2022-09-23T12:02:53;19.80;89.30
21417;DHT22;10869;52.238;10.716;2022-09-23T12:05:28;19.70;89.10
21417;DHT22;10869;52.238;10.716;2022-09-23T12:08:25;20.00;89.70
21417;DHT22;10869;52.238;10.716;2022-09-23T12:11:03;20.30;89.00
21417;DHT22;10869;52.238;10.716;2022-09-23T12:19:02;20.40;86.40
21417;DHT22;10869;52.238;10.716;2022-09-23T12:25:36;20.10;84.90
21417;DHT22;10869;52.238;10.716;2022-09-23T12:27:39;19.90;85.50
21417;DHT22;10869;52.238;10.716;2022-09-23T12:30:19;19.70;85.60
21417;DHT22;10869;52.238;10.716;2022-09-23T12:32:46;19.60;87.30
21417;DHT22;10869;52.238;10.716;2022-09-23T12:35:31;19.50;87.10
21417;DHT22;10869;52.238;10.716;2022-09-23T12:38:01;19.60;88.50
21417;DHT22;10869;52.238;10.716;2022-09-23T12:40:33;19.70;89.00
21417;DHT22;10869;52.238;10.716;2022-09-23T12:43:03;19.70;88.00
21417;DHT22;10869;52.238;10.716;2022-09-23T12:50:52;19.60;89.80
21417;DHT22;10869;52.238;10.716;2022-09-23T13:03:51;19.60;85.40
21417;DHT22;10869;52.238;10.716;2022-09-23T13:09:14;19.80;84.90
21417;DHT22;10869;52.238;10.716;2022-09-23T13:11:41;20.00;83.80
21417;DHT22;10869;52.238;10.716;2022-09-23T13:14:13;20.20;84.60
21417;DHT22;10869;52.238;10.716;2022-09-23T13:16:41;20.40;85.50
21417;DHT22;10869;52.238;10.716;2022-09-23T13:26:56;19.90;83.40
21417;DHT22;10869;52.238;10.716;2022-09-23T13:29:40;19.80;83.40
21417;DHT22;10869;52.238;10.716;2022-09-23T13:39:24;19.40;84.00
21417;DHT22;10869;52.238;10.716;2022-09-23T13:41:56;19.20;84.60
21417;DHT22;10869;52.238;10.716;2022-09-23T13:44:27;19.20;85.40
21417;DHT22;10869;52.238;10.716;2022-09-23T13:46:57;19.10;85.40
21417;DHT22;10869;52.238;10.716;2022-09-23T13:52:52;19.00;85.60
21417;DHT22;10869;52.238;10.716;2022-09-23T13:55:37;18.80;87.00
21417;DHT22;10869;52.238;10.716;2022-09-23T14:29:23;18.50;89.30
21417;DHT22;10869;52.238;10.716;2022-09-23T14:32:02;18.50;89.50
21417;DHT22;10869;52.238;10.716;2022-09-23T14:34:52;18.40;90.10
21417;DHT22;10869;52.238;10.716;2022-09-23T14:43:15;18.40;90.20
21417;DHT22;10869;52.238;10.716;2022-09-23T14:45:48;18.30;90.50
21417;DHT22;10869;52.238;10.716;2022-09-23T14:48:21;18.30;90.50
21417;DHT22;10869;52.238;10.716;2022-09-23T14:50:53;18.30;90.30
21417;DHT22;10869;52.238;10.716;2022-09-23T14:56:10;18.40;90.20
21417;DHT22;10869;52.238;10.716;2022-09-23T14:58:56;18.40;90.50
21417;DHT22;10869;52.238;10.716;2022-09-23T15:03:49;18.40;89.30
21417;DHT22;10869;52.238;10.716;2022-09-23T15:06:15;18.40;90.00
21417;DHT22;10869;52.238;10.716;2022-09-23T15:08:43;18.40;90.30
21417;DHT22;10869;52.238;10.716;2022-09-23T15:11:10;18.40;90.40
21417;DHT22;10869;52.238;10.716;2022-09-23T15:13:41;18.30;90.70
21417;DHT22;10869;52.238;10.716;2022-09-23T15:19:33;18.10;90.90
21417;DHT22;10869;52.238;10.716;2022-09-23T15:22:00;18.00;90.70
21417;DHT22;10869;52.238;10.716;2022-09-23T15:30:28;17.80;91.00
21417;DHT22;10869;52.238;10.716;2022-09-23T15:32:55;17.70;91.30
21417;DHT22;10869;52.238;10.716;2022-09-23T15:35:22;17.60;92.30
21417;DHT22;10869;52.238;10.716;2022-09-23T15:41:13;17.50;91.70
21417;DHT22;10869;52.238;10.716;2022-09-23T15:43:42;17.40;92.40
21417;DHT22;10869;52.238;10.716;2022-09-23T15:49:37;17.20;92.90
21417;DHT22;10869;52.238;10.716;2022-09-23T15:52:08;17.20;93.50
21417;DHT22;10869;52.238;10.716;2022-09-23T15:54:36;17.10;93.10
21417;DHT22;10869;52.238;10.716;2022-09-23T15:57:02;17.10;94.10
21417;DHT22;10869;52.238;10.716;2022-09-23T15:59:29;17.00;94.40
21417;DHT22;10869;52.238;10.716;2022-09-23T16:01:57;16.90;94.90
21417;DHT22;10869;52.238;10.716;2022-09-23T16:07:48;16.80;95.10
21417;DHT22;10869;52.238;10.716;2022-09-23T16:10:17;16.70;95.60
21417;DHT22;10869;52.238;10.716;2022-09-23T16:12:44;16.60;95.80
21417;DHT22;10869;52.238;10.716;2022-09-23T16:15:12;16.50;95.60
21417;DHT22;10869;52.238;10.716;2022-09-23T16:21:01;16.30;95.50
21417;DHT22;10869;52.238;10.716;2022-09-23T16:23:30;16.20;95.60
21417;DHT22;10869;52.238;10.716;2022-09-23T16:26:25;16.10;96.30
21417;DHT22;10869;52.238;10.716;2022-09-23T16:28:55;16.00;96.50
21417;DHT22;10869;52.238;10.716;2022-09-23T16:31:22;15.90;97.00
21417;DHT22;10869;52.238;10.716;2022-09-23T16:33:50;15.90;97.60
21417;DHT22;10869;52.238;10.716;2022-09-23T16:36:25;15.80;98.20
21417;DHT22;10869;52.238;10.716;2022-09-23T16:38:53;15.80;98.70
21417;DHT22;10869;52.238;10.716;2022-09-23T16:41:23;15.70;99.00
21417;DHT22;10869;52.238;10.716;2022-09-23T16:43:49;15.60;99.30
21417;DHT22;10869;52.238;10.716;2022-09-23T16:46:19;15.60;99.60
21417;DHT22;10869;52.238;10.716;2022-09-23T16:48:48;15.50;99.90
21417;DHT22;10869;52.238;10.716;2022-09-23T16:51:18;15.40;99.90
21417;DHT22;10869;52.238;10.716;2022-09-23T16:53:49;15.40;99.90
21417;DHT22;10869;52.238;10.716;2022-09-23T16:56:22;15.30;99.90
21417;DHT22;10869;52.238;10.716;2022-09-23T17:04:01;15.10;99.90
21417;DHT22;10869;52.238;10.716;2022-09-23T17:06:26;15.00;99.90
21417;DHT22;10869;52.238;10.716;2022-09-23T17:08:53;14.90;99.90
21417;DHT22;10869;52.238;10.716;2022-09-23T17:11:20;14.90;99.90
21417;DHT22;10869;52.238;10.716;2022-09-23T17:17:08;14.70;99.90
21417;DHT22;10869;52.238;10.716;2022-09-23T17:19:33;14.60;99.90
21417;DHT22;10869;52.238;10.716;2022-09-23T17:22:00;14.60;99.90
21417;DHT22;10869;52.238;10.716;2022-09-23T17:24:25;14.50;99.90
21417;DHT22;10869;52.238;10.716;2022-09-23T17:30:13;14.40;99.90
21417;DHT22;10869;52.238;10.716;2022-09-23T17:32:40;14.30;99.90
21417;DHT22;10869;52.238;10.716;2022-09-23T17:38:28;14.20;99.90
21417;DHT22;10869;52.238;10.716;2022-09-23T17:40:55;14.10;99.90
21417;DHT22;10869;52.238;10.716;2022-09-23T17:43:28;14.00;99.90
21417;DHT22;10869;52.238;10.716;2022-09-23T17:45:56;14.00;99.90
21417;DHT22;10869;52.238;10.716;2022-09-23T17:48:22;13.90;99.90
21417;DHT22;10869;52.238;10.716;2022-09-23T17:50:56;13.90;99.90
21417;DHT22;10869;52.238;10.716;2022-09-23T17:53:23;13.80;99.90
21417;DHT22;10869;52.238;10.716;2022-09-23T17:58:24;13.80;99.90
21417;DHT22;10869;52.238;10.716;2022-09-23T18:00:50;13.80;99.90
21417;DHT22;10869;52.238;10.716;2022-09-23T18:03:16;13.70;99.90
21417;DHT22;10869;52.238;10.716;2022-09-23T18:05:41;13.70;99.90
21417;DHT22;10869;52.238;10.716;2022-09-23T18:08:07;13.70;99.90
21417;DHT22;10869;52.238;10.716;2022-09-23T18:10:33;13.60;99.90
21417;DHT22;10869;52.238;10.716;2022-09-23T18:12:58;13.60;99.90
21417;DHT22;10869;52.238;10.716;2022-09-23T18:15:24;13.50;99.90
21417;DHT22;10869;52.238;10.716;2022-09-23T18:17:50;13.40;99.90
21417;DHT22;10869;52.238;10.716;2022-09-23T18:20:15;13.40;99.90
21417;DHT22;10869;52.238;10.716;2022-09-23T18:22:41;13.40;99.90
21417;DHT22;10869;52.238;10.716;2022-09-23T18:25:07;13.40;99.90
21417;DHT22;10869;52.238;10.716;2022-09-23T18:27:33;13.40;99.90
21417;DHT22;10869;52.238;10.716;2022-09-23T18:29:59;13.40;99.90
21417;DHT22;10869;52.238;10.716;2022-09-23T18:35:47;13.40;99.90
21417;DHT22;10869;52.238;10.716;2022-09-23T18:38:12;13.40;99.90
21417;DHT22;10869;52.238;10.716;2022-09-23T18:40:48;13.30;99.90
21417;DHT22;10869;52.238;10.716;2022-09-23T18:43:14;13.30;99.90
21417;DHT22;10869;52.238;10.716;2022-09-23T18:45:40;13.30;99.90
21417;DHT22;10869;52.238;10.716;2022-09-23T18:48:07;13.20;99.90
21417;DHT22;10869;52.238;10.716;2022-09-23T18:50:56;13.20;99.90
21417;DHT22;10869;52.238;10.716;2022-09-23T18:53:22;13.20;99.90
21417;DHT22;10869;52.238;10.716;2022-09-23T18:55:48;13.20;99.90
21417;DHT22;10869;52.238;10.716;2022-09-23T18:58:14;13.20;99.90
21417;DHT22;10869;52.238;10.716;2022-09-23T19:00:39;13.20;99.90
21417;DHT22;10869;52.238;10.716;2022-09-23T19:03:05;13.20;99.90
21417;DHT22;10869;52.238;10.716;2022-09-23T19:05:32;13.20;99.90
21417;DHT22;10869;52.238;10.716;2022-09-23T19:11:21;13.20;99.90
21417;DHT22;10869;52.238;10.716;2022-09-23T19:13:55;13.10;99.90
21417;DHT22;10869;52.238;10.716;2022-09-23T19:19:45;13.10;99.90
21417;DHT22;10869;52.238;10.716;2022-09-23T19:22:11;13.10;99.90
21417;DHT22;10869;52.238;10.716;2022-09-23T19:24:38;13.10;99.90
21417;DHT22;10869;52.238;10.716;2022-09-23T19:30:26;13.10;99.90
21417;DHT22;10869;52.238;10.716;2022-09-23T19:36:13;13.10;99.90
21417;DHT22;10869;52.238;10.716;2022-09-23T19:42:02;13.10;99.90
21417;DHT22;10869;52.238;10.716;2022-09-23T19:47:54;13.00;99.90
21417;DHT22;10869;52.238;10.716;2022-09-23T19:53:44;13.00;99.90
21417;DHT22;10869;52.238;10.716;2022-09-23T19:56:11;13.00;99.90
21417;DHT22;10869;52.238;10.716;2022-09-23T19:58:43;12.90;99.90
21417;DHT22;10869;52.238;10.716;2022-09-23T20:01:10;12.90;99.90
21417;DHT22;10869;52.238;10.716;2022-09-23T20:03:35;12.90;99.90
21417;DHT22;10869;52.238;10.716;2022-09-23T20:06:01;13.00;99.90
21417;DHT22;10869;52.238;10.716;2022-09-23T20:08:27;13.00;99.90
21417;DHT22;10869;52.238;10.716;2022-09-23T20:10:53;13.00;99.90
21417;DHT22;10869;52.238;10.716;2022-09-23T20:13:19;13.00;99.90
21417;DHT22;10869;52.238;10.716;2022-09-23T20:15:46;13.00;99.90
21417;DHT22;10869;52.238;10.716;2022-09-23T20:20:54;13.00;99.90
21417;DHT22;10869;52.238;10.716;2022-09-23T20:26:42;13.00;99.90
21417;DHT22;10869;52.238;10.716;2022-09-23T20:32:48;13.00;99.90
21417;DHT22;10869;52.238;10.716;2022-09-23T20:35:14;12.90;99.90
21417;DHT22;10869;52.238;10.716;2022-09-23T20:37:41;12.90;99.90
21417;DHT22;10869;52.238;10.716;2022-09-23T20:40:07;12.90;99.90
21417;DHT22;10869;52.238;10.716;2022-09-23T20:42:34;12.90;99.90
21417;DHT22;10869;52.238;10.716;2022-09-23T20:45:00;12.90;99.90
21417;DHT22;10869;52.238;10.716;2022-09-23T20:47:26;13.00;99.90
21417;DHT22;10869;52.238;10.716;2022-09-23T20:49:51;13.00;99.90
21417;DHT22;10869;52.238;10.716;2022-09-23T20:52:18;13.00;99.90
21417;DHT22;10869;52.238;10.716;2022-09-23T20:54:45;13.00;99.90
21417;DHT22;10869;52.238;10.716;2022-09-23T20:57:12;13.00;99.90
21417;DHT22;10869;52.238;10.716;2022-09-23T20:59:39;12.90;99.90
21417;DHT22;10869;52.238;10.716;2022-09-23T21:02:05;13.00;99.90
21417;DHT22;10869;52.238;10.716;2022-09-23T21:04:31;13.00;99.90
21417;DHT22;10869;52.238;10.716;2022-09-23T21:06:59;13.00;99.90
21417;DHT22;10869;52.238;10.716;2022-09-23T21:09:26;13.00;99.90
21417;DHT22;10869;52.238;10.716;2022-09-23T21:11:53;12.90;99.90
21417;DHT22;10869;52.238;10.716;2022-09-23T21:14:18;12.90;99.90
21417;DHT22;10869;52.238;10.716;2022-09-23T21:16:49;12.90;99.90
21417;DHT22;10869;52.238;10.716;2022-09-23T21:19:15;12.90;99.90
21417;DHT22;10869;52.238;10.716;2022-09-23T21:21:41;12.90;99.90
21417;DHT22;10869;52.238;10.716;2022-09-23T21:24:08;12.90;99.90
21417;DHT22;10869;52.238;10.716;2022-09-23T21:26:34;12.90;99.90
21417;DHT22;10869;52.238;10.716;2022-09-23T21:29:00;12.90;99.90
21417;DHT22;10869;52.238;10.716;2022-09-23T21:31:34;12.80;99.90
21417;DHT22;10869;52.238;10.716;2022-09-23T21:36:29;12.80;99.90
21417;DHT22;10869;52.238;10.716;2022-09-23T21:38:55;12.80;99.90
21417;DHT22;10869;52.238;10.716;2022-09-23T21:41:22;12.70;99.90
21417;DHT22;10869;52.238;10.716;2022-09-23T21:43:49;12.80;99.90
21417;DHT22;10869;52.238;10.716;2022-09-23T21:46:18;12.80;99.90
21417;DHT22;10869;52.238;10.716;2022-09-23T21:48:49;12.80;99.90
21417;DHT22;10869;52.238;10.716;2022-09-23T21:51:19;12.80;99.90
21417;DHT22;10869;52.238;10.716;2022-09-23T21:53:45;12.80;99.90
21417;DHT22;10869;52.238;10.716;2022-09-23T21:56:23;12.80;99.90
21417;DHT22;10869;52.238;10.716;2022-09-23T21:58:49;12.80;99.90
21417;DHT22;10869;52.238;10.716;2022-09-23T22:01:22;12.80;99.90
21417;DHT22;10869;52.238;10.716;2022-09-23T22:03:52;12.80;99.90
21417;DHT22;10869;52.238;10.716;2022-09-23T22:06:28;12.90;99.90
21417;DHT22;10869;52.238;10.716;2022-09-23T22:09:00;12.80;99.90
21417;DHT22;10869;52.238;10.716;2022-09-23T22:11:29;12.90;99.90
21417;DHT22;10869;52.238;10.716;2022-09-23T22:14:15;12.80;99.90
21417;DHT22;10869;52.238;10.716;2022-09-23T22:16:42;12.80;99.90
21417;DHT22;10869;52.238;10.716;2022-09-23T22:19:09;12.80;99.90
21417;DHT22;10869;52.238;10.716;2022-09-23T22:21:37;12.80;99.90
21417;DHT22;10869;52.238;10.716;2022-09-23T22:24:04;12.80;99.90
21417;DHT22;10869;52.238;10.716;2022-09-23T22:26:34;12.90;99.90
21417;DHT22;10869;52.238;10.716;2022-09-23T22:29:00;12.80;99.90
21417;DHT22;10869;52.238;10.716;2022-09-23T22:31:44;12.80;99.90
21417;DHT22;10869;52.238;10.716;2022-09-23T22:34:29;12.90;99.90
21417;DHT22;10869;52.238;10.716;2022-09-23T22:36:56;12.80;99.90
21417;DHT22;10869;52.238;10.716;2022-09-23T22:39:22;12.80;99.90
21417;DHT22;10869;52.238;10.716;2022-09-23T22:41:51;12.80;99.90
21417;DHT22;10869;52.238;10.716;2022-09-23T22:44:17;12.90;99.90
21417;DHT22;10869;52.238;10.716;2022-09-23T22:46:44;12.90;99.90
21417;DHT22;10869;52.238;10.716;2022-09-23T22:49:10;12.90;99.90
21417;DHT22;10869;52.238;10.716;2022-09-23T22:51:38;12.90;99.90
21417;DHT22;10869;52.238;10.716;2022-09-23T22:54:04;12.90;99.90
21417;DHT22;10869;52.238;10.716;2022-09-23T22:56:30;12.90;99.90
21417;DHT22;10869;52.238;10.716;2022-09-23T22:59:09;12.90;99.90
